DFEY weather

Ouargaye Airport
Ouargaye, Koulpulogo, Burkina Faso

Public forecast

Using degrees Celsius for public forecast. Weather courtesy of forecast.io.

METAR (pilot weather report)

Report is more than 6 hours old.

Closest report is Fada N'gourma Airport, 35.6 nm (66.0 km) NNE. Retrieved 2009/09/21 17:00 UTC (10 years ago):

DFEF 211700Z 00000KT 9999 FEW0226 TCU BKN260 30/25

TAF (pilot weather forecast)

Forecast is more than 6 hours old.

Closest forecast is Ouagadougou Airport, 104.6 nm (193.7 km) WNW. Retrieved 2019/03/24 18:21 UTC (11 hours ago):

TAF DFFD 241700Z 2418/2524 VRB08KT CAVOK PROB30 TEMPO 2506/2510 4000 HZ